sensor_id;sensor_type;location;lat;lon;timestamp;temperature;humidity
15156;DHT22;7678;50.058;8.306;2023-05-10T17:36:21;20.70;74.20
15156;DHT22;7678;50.058;8.306;2023-05-10T17:38:49;20.10;75.10
15156;DHT22;7678;50.058;8.306;2023-05-10T17:41:18;19.50;89.40
15156;DHT22;7678;50.058;8.306;2023-05-10T17:43:47;18.90;89.20
15156;DHT22;7678;50.058;8.306;2023-05-10T17:46:16;18.40;90.10
15156;DHT22;7678;50.058;8.306;2023-05-10T17:48:44;18.30;91.20
15156;DHT22;7678;50.058;8.306;2023-05-10T17:51:12;18.20;94.50
15156;DHT22;7678;50.058;8.306;2023-05-10T17:53:43;18.00;93.70
15156;DHT22;7678;50.058;8.306;2023-05-10T17:56:12;17.80;95.00
15156;DHT22;7678;50.058;8.306;2023-05-10T17:58:42;17.70;97.60
15156;DHT22;7678;50.058;8.306;2023-05-10T18:01:11;17.70;98.00
15156;DHT22;7678;50.058;8.306;2023-05-10T18:03:39;17.60;99.90
15156;DHT22;7678;50.058;8.306;2023-05-10T18:06:07;17.70;98.70
15156;DHT22;7678;50.058;8.306;2023-05-10T18:08:36;17.70;99.80
15156;DHT22;7678;50.058;8.306;2023-05-10T18:11:06;17.60;98.50
15156;DHT22;7678;50.058;8.306;2023-05-10T18:13:35;17.70;95.10
15156;DHT22;7678;50.058;8.306;2023-05-10T18:16:04;17.70;95.40
15156;DHT22;7678;50.058;8.306;2023-05-10T18:18:34;17.60;98.40
15156;DHT22;7678;50.058;8.306;2023-05-10T18:21:04;17.50;97.20
15156;DHT22;7678;50.058;8.306;2023-05-10T18:23:33;17.40;99.90
15156;DHT22;7678;50.058;8.306;2023-05-10T18:26:01;17.30;99.90
15156;DHT22;7678;50.058;8.306;2023-05-10T18:28:31;17.20;97.30
15156;DHT22;7678;50.058;8.306;2023-05-10T18:31:00;16.90;99.90
15156;DHT22;7678;50.058;8.306;2023-05-10T18:33:28;16.70;99.90
15156;DHT22;7678;50.058;8.306;2023-05-10T18:35:56;16.60;99.90
15156;DHT22;7678;50.058;8.306;2023-05-10T18:38:24;16.50;99.90
15156;DHT22;7678;50.058;8.306;2023-05-10T18:40:52;16.40;99.90
15156;DHT22;7678;50.058;8.306;2023-05-10T18:43:23;16.30;99.90
15156;DHT22;7678;50.058;8.306;2023-05-10T18:45:52;16.20;99.90
15156;DHT22;7678;50.058;8.306;2023-05-10T18:48:25;16.30;99.90
15156;DHT22;7678;50.058;8.306;2023-05-10T18:50:53;16.10;99.90
15156;DHT22;7678;50.058;8.306;2023-05-10T18:53:21;16.10;99.90
15156;DHT22;7678;50.058;8.306;2023-05-10T18:55:54;15.90;99.90
15156;DHT22;7678;50.058;8.306;2023-05-10T18:58:26;15.80;99.90
15156;DHT22;7678;50.058;8.306;2023-05-10T19:00:59;15.80;99.90
15156;DHT22;7678;50.058;8.306;2023-05-10T19:03:28;15.70;99.90
15156;DHT22;7678;50.058;8.306;2023-05-10T19:05:56;15.60;99.90
15156;DHT22;7678;50.058;8.306;2023-05-10T19:08:25;15.60;99.90
15156;DHT22;7678;50.058;8.306;2023-05-10T19:10:54;15.40;99.90
15156;DHT22;7678;50.058;8.306;2023-05-10T19:13:24;15.50;99.90
15156;DHT22;7678;50.058;8.306;2023-05-10T19:16:03;15.60;99.90
15156;DHT22;7678;50.058;8.306;2023-05-10T19:18:33;15.60;99.90
15156;DHT22;7678;50.058;8.306;2023-05-10T19:21:02;15.60;99.90
15156;DHT22;7678;50.058;8.306;2023-05-10T19:23:34;15.60;99.90
15156;DHT22;7678;50.058;8.306;2023-05-10T19:26:03;15.50;99.90
15156;DHT22;7678;50.058;8.306;2023-05-10T19:28:32;15.20;99.90
15156;DHT22;7678;50.058;8.306;2023-05-10T19:31:01;15.00;99.90
15156;DHT22;7678;50.058;8.306;2023-05-10T19:33:31;14.90;99.90
15156;DHT22;7678;50.058;8.306;2023-05-10T19:35:59;14.80;99.90
15156;DHT22;7678;50.058;8.306;2023-05-10T19:38:28;14.70;99.90
15156;DHT22;7678;50.058;8.306;2023-05-10T19:40:57;14.60;99.90
15156;DHT22;7678;50.058;8.306;2023-05-10T19:43:26;14.60;99.90
15156;DHT22;7678;50.058;8.306;2023-05-10T19:45:59;14.60;99.90
15156;DHT22;7678;50.058;8.306;2023-05-10T19:48:28;14.60;99.90
15156;DHT22;7678;50.058;8.306;2023-05-10T19:51:03;14.60;99.90
15156;DHT22;7678;50.058;8.306;2023-05-10T19:53:36;14.60;99.90
15156;DHT22;7678;50.058;8.306;2023-05-10T19:56:07;14.30;99.90
15156;DHT22;7678;50.058;8.306;2023-05-10T19:58:35;14.10;99.90
15156;DHT22;7678;50.058;8.306;2023-05-10T20:01:04;14.20;99.90
15156;DHT22;7678;50.058;8.306;2023-05-10T20:03:33;14.20;99.90
15156;DHT22;7678;50.058;8.306;2023-05-10T20:06:03;14.20;99.90
15156;DHT22;7678;50.058;8.306;2023-05-10T20:08:31;14.30;99.90
15156;DHT22;7678;50.058;8.306;2023-05-10T20:10:59;14.40;99.90
15156;DHT22;7678;50.058;8.306;2023-05-10T20:13:29;14.40;99.90
15156;DHT22;7678;50.058;8.306;2023-05-10T20:15:59;14.50;99.90
15156;DHT22;7678;50.058;8.306;2023-05-10T20:18:28;14.40;99.90
15156;DHT22;7678;50.058;8.306;2023-05-10T20:20:57;14.20;99.90
15156;DHT22;7678;50.058;8.306;2023-05-10T20:23:31;14.30;99.90
15156;DHT22;7678;50.058;8.306;2023-05-10T20:25:59;14.30;99.90
15156;DHT22;7678;50.058;8.306;2023-05-10T20:28:27;14.20;99.90
15156;DHT22;7678;50.058;8.306;2023-05-10T20:30:56;14.20;99.90
15156;DHT22;7678;50.058;8.306;2023-05-10T20:33:26;14.50;99.90
15156;DHT22;7678;50.058;8.306;2023-05-10T20:35:55;14.50;99.90
15156;DHT22;7678;50.058;8.306;2023-05-10T20:38:25;14.60;99.90
15156;DHT22;7678;50.058;8.306;2023-05-10T20:40:54;14.40;99.90
15156;DHT22;7678;50.058;8.306;2023-05-10T20:43:23;14.50;99.90
15156;DHT22;7678;50.058;8.306;2023-05-10T20:45:51;14.30;99.90
15156;DHT22;7678;50.058;8.306;2023-05-10T20:48:19;14.00;99.90
15156;DHT22;7678;50.058;8.306;2023-05-10T20:50:47;14.00;99.90
15156;DHT22;7678;50.058;8.306;2023-05-10T20:53:17;14.00;99.90
15156;DHT22;7678;50.058;8.306;2023-05-10T20:55:45;14.20;99.90
15156;DHT22;7678;50.058;8.306;2023-05-10T20:58:15;14.00;99.90
15156;DHT22;7678;50.058;8.306;2023-05-10T21:00:42;13.80;99.90
15156;DHT22;7678;50.058;8.306;2023-05-10T21:03:11;13.80;99.90
15156;DHT22;7678;50.058;8.306;2023-05-10T21:05:39;13.80;99.90
15156;DHT22;7678;50.058;8.306;2023-05-10T21:08:07;13.80;99.90
15156;DHT22;7678;50.058;8.306;2023-05-10T21:10:35;13.80;99.90
15156;DHT22;7678;50.058;8.306;2023-05-10T21:13:03;13.70;99.90
15156;DHT22;7678;50.058;8.306;2023-05-10T21:15:32;13.90;99.90
15156;DHT22;7678;50.058;8.306;2023-05-10T21:18:01;13.80;99.90
15156;DHT22;7678;50.058;8.306;2023-05-10T21:20:29;13.60;99.90
15156;DHT22;7678;50.058;8.306;2023-05-10T21:22:57;13.80;99.90
15156;DHT22;7678;50.058;8.306;2023-05-10T21:25:25;13.70;99.90
15156;DHT22;7678;50.058;8.306;2023-05-10T21:27:53;13.70;99.90
15156;DHT22;7678;50.058;8.306;2023-05-10T21:30:21;13.60;99.90
15156;DHT22;7678;50.058;8.306;2023-05-10T21:32:51;13.70;99.90
15156;DHT22;7678;50.058;8.306;2023-05-10T21:35:21;13.50;99.90
15156;DHT22;7678;50.058;8.306;2023-05-10T21:37:49;13.40;99.90
15156;DHT22;7678;50.058;8.306;2023-05-10T21:40:17;13.60;99.90
15156;DHT22;7678;50.058;8.306;2023-05-10T21:42:46;13.60;99.90
15156;DHT22;7678;50.058;8.306;2023-05-10T21:45:15;13.50;99.90
15156;DHT22;7678;50.058;8.306;2023-05-10T21:47:43;13.60;99.90
15156;DHT22;7678;50.058;8.306;2023-05-10T21:50:13;13.40;99.90
15156;DHT22;7678;50.058;8.306;2023-05-10T21:52:41;13.40;99.90
15156;DHT22;7678;50.058;8.306;2023-05-10T21:55:09;13.10;99.90
15156;DHT22;7678;50.058;8.306;2023-05-10T21:57:37;12.90;99.90
15156;DHT22;7678;50.058;8.306;2023-05-10T22:00:07;12.80;99.90
15156;DHT22;7678;50.058;8.306;2023-05-10T22:02:36;12.80;99.90
15156;DHT22;7678;50.058;8.306;2023-05-10T22:05:04;12.80;99.90
15156;DHT22;7678;50.058;8.306;2023-05-10T22:07:34;12.70;99.90
15156;DHT22;7678;50.058;8.306;2023-05-10T22:10:02;12.60;99.90
15156;DHT22;7678;50.058;8.306;2023-05-10T22:12:31;12.80;99.90
15156;DHT22;7678;50.058;8.306;2023-05-10T22:14:59;12.90;99.90
15156;DHT22;7678;50.058;8.306;2023-05-10T22:17:30;12.70;99.90
15156;DHT22;7678;50.058;8.306;2023-05-10T22:19:59;12.50;99.90
15156;DHT22;7678;50.058;8.306;2023-05-10T22:22:27;12.50;99.90
15156;DHT22;7678;50.058;8.306;2023-05-10T22:24:56;12.30;99.90
15156;DHT22;7678;50.058;8.306;2023-05-10T22:27:24;12.30;99.90
15156;DHT22;7678;50.058;8.306;2023-05-10T22:29:52;12.30;99.90
15156;DHT22;7678;50.058;8.306;2023-05-10T22:32:21;12.50;99.90
15156;DHT22;7678;50.058;8.306;2023-05-10T22:34:49;12.50;99.90
15156;DHT22;7678;50.058;8.306;2023-05-10T22:37:18;12.50;99.90
15156;DHT22;7678;50.058;8.306;2023-05-10T22:39:46;12.50;99.90
15156;DHT22;7678;50.058;8.306;2023-05-10T22:42:16;12.40;99.90
15156;DHT22;7678;50.058;8.306;2023-05-10T22:44:44;12.60;99.90
15156;DHT22;7678;50.058;8.306;2023-05-10T22:47:12;12.60;99.90
15156;DHT22;7678;50.058;8.306;2023-05-10T22:49:40;12.40;99.90
15156;DHT22;7678;50.058;8.306;2023-05-10T22:52:08;12.40;99.90
15156;DHT22;7678;50.058;8.306;2023-05-10T22:54:36;12.30;99.90
15156;DHT22;7678;50.058;8.306;2023-05-10T22:57:04;12.40;99.90
15156;DHT22;7678;50.058;8.306;2023-05-10T22:59:34;12.60;99.90
15156;DHT22;7678;50.058;8.306;2023-05-10T23:02:02;12.60;99.90
15156;DHT22;7678;50.058;8.306;2023-05-10T23:04:31;12.60;99.90
15156;DHT22;7678;50.058;8.306;2023-05-10T23:06:59;12.50;99.90
15156;DHT22;7678;50.058;8.306;2023-05-10T23:09:26;12.50;99.90
15156;DHT22;7678;50.058;8.306;2023-05-10T23:11:54;12.00;99.90
15156;DHT22;7678;50.058;8.306;2023-05-10T23:14:23;11.80;99.90
15156;DHT22;7678;50.058;8.306;2023-05-10T23:16:52;11.50;99.90
15156;DHT22;7678;50.058;8.306;2023-05-10T23:19:20;11.40;99.90
15156;DHT22;7678;50.058;8.306;2023-05-10T23:21:50;11.40;99.90
15156;DHT22;7678;50.058;8.306;2023-05-10T23:24:18;11.30;99.90
15156;DHT22;7678;50.058;8.306;2023-05-10T23:26:46;11.20;99.90
15156;DHT22;7678;50.058;8.306;2023-05-10T23:29:14;11.20;99.90
15156;DHT22;7678;50.058;8.306;2023-05-10T23:31:42;11.30;99.90
15156;DHT22;7678;50.058;8.306;2023-05-10T23:34:14;11.40;99.90
15156;DHT22;7678;50.058;8.306;2023-05-10T23:36:43;11.30;99.90
15156;DHT22;7678;50.058;8.306;2023-05-10T23:39:11;11.30;99.90
15156;DHT22;7678;50.058;8.306;2023-05-10T23:41:39;11.50;99.90
15156;DHT22;7678;50.058;8.306;2023-05-10T23:44:07;11.50;99.90
15156;DHT22;7678;50.058;8.306;2023-05-10T23:46:35;11.70;99.90
15156;DHT22;7678;50.058;8.306;2023-05-10T23:49:03;11.50;99.90
15156;DHT22;7678;50.058;8.306;2023-05-10T23:51:32;11.40;99.90
15156;DHT22;7678;50.058;8.306;2023-05-10T23:54:00;11.40;99.90
15156;DHT22;7678;50.058;8.306;2023-05-10T23:56:29;11.40;99.90
15156;DHT22;7678;50.058;8.306;2023-05-10T23:58:57;11.40;99.90
